^^
B2 Weather Station Historical Data
Daily Summary for June 10, 2019 Units:  English    Metric   Both
Daily Weekly Monthly Yearly Custom
  High: Low: Average:
Temperature: 75.3 °F 56.9 °F 67.4 °F
Dew Point: 65.1 °F 43 °F 52.7 °F
Humidity: 95% 32% 63%
Wind Speed: 25.3mph 0mph 10.1mph
Wind Gust: 16.8mph - -
Wind- - NW
Pressure: 30.15 in 29.89 in -
Precipitation: 0 in    
Historical Graphs
 
 
Tabular Data for June 10, 2019
Time Temperature Dew Point Pressure Wind Wind Speed Wind Gust Humidity Rainfall Rate (Hourly) solar
00:04 66.5 °F 65 °F 29.92 in Calm     95% 0 in 0.00 W/m2
00:09 66.5 °F 65 °F 29.91 in Calm     95% 0 in 0.00 W/m2
00:14 66.5 °F 65 °F 29.91 in Calm     95% 0 in 0.00 W/m2
00:19 66.6 °F 65.1 °F 29.91 in Calm     95% 0 in 0.00 W/m2
00:24 66.6 °F 65.1 °F 29.91 in Calm     95% 0 in 0.00 W/m2
00:29 66.6 °F 65.1 °F 29.91 in Calm     95% 0 in 0.00 W/m2
00:34 66.5 °F 65 °F 29.91 in Calm     95% 0 in 0.00 W/m2
00:39 66.5 °F 65 °F 29.91 in Calm     95% 0 in 0.00 W/m2
00:44 66.4 °F 64.9 °F 29.91 in Calm     95% 0 in 0.00 W/m2
00:49 66.3 °F 64.8 °F 29.91 in Calm     95% 0 in 0.00 W/m2
00:54 66.2 °F 64.7 °F 29.91 in Calm     95% 0 in 0.00 W/m2
00:59 66.1 °F 64.6 °F 29.91 in Calm     95% 0 in 0.00 W/m2
01:04 66.1 °F 64.6 °F 29.91 in Calm     95% 0 in 0.00 W/m2
01:09 66.1 °F 64.6 °F 29.91 in Calm     95% 0 in 0.00 W/m2
01:14 66 °F 64.5 °F 29.91 in Calm     95% 0 in 0.00 W/m2
01:19 66 °F 64.5 °F 29.91 in Calm     95% 0 in 0.00 W/m2
01:24 65.9 °F 64.4 °F 29.91 in Calm     95% 0 in 0.00 W/m2
01:29 65.9 °F 64.4 °F 29.91 in Calm     95% 0 in 0.00 W/m2
01:34 65.9 °F 64.4 °F 29.90 in Calm     95% 0 in 0.00 W/m2
01:39 65.8 °F 64.3 °F 29.90 in Calm     95% 0 in 0.00 W/m2
01:44 65.8 °F 64.3 °F 29.90 in Calm     95% 0 in 0.00 W/m2
01:49 65.7 °F 64.2 °F 29.90 in Calm     95% 0 in 0.00 W/m2
01:54 65.6 °F 64.1 °F 29.90 in Calm     95% 0 in 0.00 W/m2
01:59 65.5 °F 64 °F 29.90 in Calm     95% 0 in 0.00 W/m2
02:04 65.5 °F 64 °F 29.89 in Calm     95% 0 in 0.00 W/m2
02:09 65.4 °F 63.9 °F 29.90 in Calm     95% 0 in 0.00 W/m2
02:14 65.4 °F 63.9 °F 29.90 in Calm     95% 0 in 0.00 W/m2
02:19 65.3 °F 63.8 °F 29.89 in Calm     95% 0 in 0.00 W/m2
02:24 65.2 °F 63.7 °F 29.89 in Calm     95% 0 in 0.00 W/m2
02:29 65.2 °F 63.7 °F 29.89 in Calm     95% 0 in 0.00 W/m2
02:34 65.1 °F 63.6 °F 29.90 in Calm     95% 0 in 0.00 W/m2
02:39 65.1 °F 63.6 °F 29.90 in Calm     95% 0 in 0.00 W/m2
02:44 65 °F 63.5 °F 29.90 in WSW 2 mph 0.4 mph 95% 0 in 0.00 W/m2
02:49 64.8 °F 63.3 °F 29.90 in Calm     95% 0 in 0.00 W/m2
02:54 64.7 °F 63.2 °F 29.90 in West 3 mph 0.4 mph 95% 0 in 0.00 W/m2
02:59 64.6 °F 63.1 °F 29.90 in WNW 3.5 mph 2 mph 95% 0 in 0.00 W/m2
03:04 64.5 °F 63 °F 29.90 in WNW 3.5 mph 1.3 mph 95% 0 in 0.00 W/m2
03:09 64.5 °F 63 °F 29.90 in Calm   0.1 mph 95% 0 in 0.00 W/m2
03:14 64.7 °F 63.2 °F 29.91 in West 3.5 mph 1.6 mph 95% 0 in 0.00 W/m2
03:19 65.2 °F 63.7 °F 29.90 in West 3.5 mph 1.4 mph 95% 0 in 0.00 W/m2
03:24 65.9 °F 64.4 °F 29.90 in NW 11.5 mph 7.7 mph 95% 0 in 0.00 W/m2
03:29 66.3 °F 64.8 °F 29.90 in WNW 9.2 mph 5.5 mph 95% 0 in 0.00 W/m2
03:34 66.1 °F 64.6 °F 29.91 in NW 8.1 mph 3.8 mph 95% 0 in 0.00 W/m2
03:39 65.9 °F 64.4 °F 29.91 in NW 9.2 mph 5.1 mph 95% 0 in 0.00 W/m2
03:44 65.7 °F 64.2 °F 29.91 in West 4.6 mph 4.4 mph 95% 0 in 0.00 W/m2
03:49 65.7 °F 64.2 °F 29.91 in NW 10.4 mph 5.1 mph 95% 0 in 0.00 W/m2
03:54 65.5 °F 64 °F 29.91 in WNW 10.4 mph 6.1 mph 95% 0 in 0.00 W/m2
03:59 64.4 °F 62.9 °F 29.91 in NW 15 mph 8.6 mph 95% 0 in 0.00 W/m2
04:04 63.7 °F 62.2 °F 29.91 in NNW 11.5 mph 5.8 mph 95% 0 in 0.00 W/m2
04:09 63.5 °F 62 °F 29.91 in NW 12.7 mph 7.3 mph 95% 0 in 0.00 W/m2
04:14 63.5 °F 62 °F 29.91 in NNW 15 mph 8.5 mph 95% 0 in 0.00 W/m2
04:19 63.5 °F 61.7 °F 29.92 in NNW 14 mph 7.7 mph 94% 0 in 0.00 W/m2
04:24 63.6 °F 61.5 °F 29.92 in NW 11.5 mph 6.7 mph 93% 0 in 0.00 W/m2
04:29 63.6 °F 61.5 °F 29.92 in NW 10.4 mph 7.3 mph 93% 0 in 0.00 W/m2
04:34 63.6 °F 61.2 °F 29.92 in WNW 13.8 mph 6.1 mph 92% 0 in 0.00 W/m2
04:39 63.6 °F 61.2 °F 29.93 in NW 9.2 mph 6 mph 92% 0 in 0.00 W/m2
04:44 63.5 °F 60.8 °F 29.93 in NNW 9.2 mph 6.3 mph 91% 0 in 0.00 W/m2
04:49 63.5 °F 60.8 °F 29.93 in West 10.4 mph 5.6 mph 91% 0 in 0.00 W/m2
04:54 63.5 °F 60.8 °F 29.94 in NW 8.1 mph 5.1 mph 91% 0 in 0.00 W/m2
04:59 63.5 °F 60.8 °F 29.94 in North 6.9 mph 3.7 mph 91% 0 in 0.00 W/m2
05:04 63.5 °F 60.8 °F 29.94 in NNW 8.1 mph 4.6 mph 91% 0 in 0.00 W/m2
05:09 63.6 °F 60.9 °F 29.94 in NW 5.8 mph 5 mph 91% 0 in 0.00 W/m2
05:14 63.6 °F 60.9 °F 29.95 in NW 8.1 mph 4.9 mph 91% 0 in 0.00 W/m2
05:19 63.7 °F 60.7 °F 29.95 in NW 11 mph 7.1 mph 90% 0 in 0.00 W/m2
05:24 63.8 °F 60.5 °F 29.95 in WNW 11.5 mph 7.2 mph 89% 0 in 0.00 W/m2
05:29 63.9 °F 60.6 °F 29.95 in NW 12.7 mph 6.1 mph 89% 0 in 0.00 W/m2
05:34 64 °F 60.4 °F 29.95 in NW 16.1 mph 7.6 mph 88% 0 in 5.00 W/m2
05:39 63.9 °F 60 °F 29.96 in NW 9.2 mph 8.9 mph 87% 0 in 11.00 W/m2
05:44 63.9 °F 59.6 °F 29.96 in NW 11.5 mph 7.8 mph 86% 0 in 9.00 W/m2
05:49 63.9 °F 59.6 °F 29.97 in NNW 16.1 mph 7.7 mph 86% 0 in 9.00 W/m2
05:54 63.8 °F 59.5 °F 29.97 in NW 15 mph 9.7 mph 86% 0 in 9.00 W/m2
05:59 63.7 °F 59.1 °F 29.98 in NW 10.4 mph 8 mph 85% 0 in 14.00 W/m2
06:04 63.5 °F 58.9 °F 29.98 in NNW 12.7 mph 8.1 mph 85% 0 in 26.00 W/m2
06:09 63.4 °F 58.5 °F 29.98 in WNW 17 mph 10.8 mph 84% 0 in 28.00 W/m2
06:14 63.2 °F 58.3 °F 29.99 in WNW 13.8 mph 9.3 mph 84% 0 in 12.00 W/m2
06:19 63 °F 57.8 °F 29.99 in NW 16.1 mph 11.4 mph 83% 0 in 19.00 W/m2
06:24 62.9 °F 57.7 °F 29.99 in NW 12.7 mph 9.2 mph 83% 0 in 39.00 W/m2
06:29 62.8 °F 57.6 °F 29.99 in NNW 13.8 mph 7.4 mph 83% 0 in 32.00 W/m2
06:34 62.8 °F 57.6 °F 30.00 in NNW 12.7 mph 8.9 mph 83% 0 in 32.00 W/m2
06:39 62.8 °F 57.6 °F 30.00 in WNW 11.5 mph 9.3 mph 83% 0 in 47.00 W/m2
06:44 62.7 °F 57.5 °F 30.01 in NW 12.7 mph 8.6 mph 83% 0 in 25.00 W/m2
06:49 62.7 °F 57.1 °F 30.01 in NW 15 mph 7.7 mph 82% 0 in 28.00 W/m2
06:54 62.6 °F 57 °F 30.01 in WNW 13.8 mph 7.1 mph 82% 0 in 32.00 W/m2
06:59 62.6 °F 57.4 °F 30.02 in WNW 8.1 mph 5.4 mph 83% 0 in 30.00 W/m2
07:04 62.3 °F 56.4 °F 30.01 in NW 19.6 mph 9.4 mph 81% 0 in 28.00 W/m2
07:09 62 °F 56.1 °F 30.02 in NNW 15 mph 8.4 mph 81% 0 in 53.00 W/m2
07:14 62 °F 56.4 °F 30.02 in NW 11.5 mph 6.1 mph 82% 0 in 53.00 W/m2
07:19 61.9 °F 56 °F 30.02 in NW 15 mph 8.2 mph 81% 0 in 54.00 W/m2
07:24 62 °F 56.4 °F 30.02 in NNW 11.5 mph 8 mph 82% 0 in 91.00 W/m2
07:29 62 °F 56.1 °F 30.03 in NNW 17.3 mph 10.7 mph 81% 0 in 109.00 W/m2
07:34 62.2 °F 56.3 °F 30.03 in NW 15 mph 7.7 mph 81% 0 in 127.00 W/m2
07:39 62.2 °F 56 °F 30.03 in NW 12 mph 8.8 mph 80% 0 in 118.00 W/m2
07:44 62.3 °F 56 °F 30.03 in NNW 16.1 mph 7.1 mph 80% 0 in 107.00 W/m2
07:49 62.3 °F 55.7 °F 30.04 in NW 15 mph 9.2 mph 79% 0 in 149.00 W/m2
07:54 62.3 °F 55.7 °F 30.04 in NW 16.1 mph 11.1 mph 79% 0 in 139.00 W/m2
07:59 62.4 °F 56.1 °F 30.04 in NNW 11.5 mph 7.8 mph 80% 0 in 142.00 W/m2
08:04 62.6 °F 56.3 °F 30.04 in NW 8.1 mph 5.6 mph 80% 0 in 181.00 W/m2
08:09 62.8 °F 56.5 °F 30.04 in NW 9.2 mph 4.8 mph 80% 0 in 123.00 W/m2
08:14 62.6 °F 56 °F 30.04 in NNW 5.8 mph 5.2 mph 79% 0 in 120.00 W/m2
08:19 62.3 °F 55.7 °F 30.04 in NW 11.5 mph 7.9 mph 79% 0 in 160.00 W/m2
08:24 62.3 °F 55.4 °F 30.04 in NW 15 mph 10.9 mph 78% 0 in 218.00 W/m2
08:29 62.2 °F 55.3 °F 30.05 in NNW 11.5 mph 9.9 mph 78% 0 in 221.00 W/m2
08:34 62.3 °F 55 °F 30.04 in NNW 16.1 mph 8 mph 77% 0 in 199.00 W/m2
08:39 62.2 °F 54.9 °F 30.05 in WNW 15 mph 8.5 mph 77% 0 in 186.00 W/m2
08:44 62.2 °F 54.9 °F 30.05 in WNW 11.5 mph 9.4 mph 77% 0 in 271.00 W/m2
08:49 62.6 °F 54.9 °F 30.05 in NW 15 mph 8.6 mph 76% 0 in 197.00 W/m2
08:54 62.5 °F 54.1 °F 30.05 in WNW 15 mph 8.5 mph 74% 0 in 186.00 W/m2
08:59 62.6 °F 54.2 °F 30.06 in NW 18.4 mph 10.1 mph 74% 0 in 265.00 W/m2
09:04 62.8 °F 53.3 °F 30.06 in NW 16.1 mph 9.1 mph 71% 0 in 255.00 W/m2
09:09 63.1 °F 53.2 °F 30.06 in NNW 15 mph 11.5 mph 70% 0 in 383.00 W/m2
09:14 63.2 °F 52.9 °F 30.06 in NNW 17.3 mph 10.9 mph 69% 0 in 236.00 W/m2
09:19 63.1 °F 52.4 °F 30.06 in NNW 19.6 mph 11.9 mph 68% 0 in 241.00 W/m2
09:24 63.8 °F 53.4 °F 30.06 in NW 12 mph 8 mph 69% 0 in 719.00 W/m2
09:29 64.9 °F 52.8 °F 30.06 in NNW 19.6 mph 10.9 mph 65% 0 in 264.00 W/m2
09:34 65 °F 53.4 °F 30.06 in North 15 mph 9.4 mph 66% 0 in 652.00 W/m2
09:39 65.8 °F 53.3 °F 30.06 in NNW 19.6 mph 13.6 mph 64% 0 in 689.00 W/m2
09:44 66.3 °F 53.8 °F 30.06 in North 16.1 mph 10.2 mph 64% 0 in 617.00 W/m2
09:49 66.2 °F 51.9 °F 30.07 in NW 21.9 mph 12.1 mph 60% 0 in 605.00 W/m2
09:54 66.1 °F 52.3 °F 30.07 in NNW 18.4 mph 10.2 mph 61% 0 in 629.00 W/m2
09:59 66.2 °F 51.9 °F 30.07 in NNW 16.1 mph 10.1 mph 60% 0 in 561.00 W/m2
10:04 66.7 °F 52.4 °F 30.07 in NW 12 mph 10.4 mph 60% 0 in 587.00 W/m2
10:09 66.9 °F 52.6 °F 30.07 in NNW 19.6 mph 13 mph 60% 0 in 605.00 W/m2
10:14 67.1 °F 51.4 °F 30.07 in NNW 20.7 mph 13 mph 57% 0 in 638.00 W/m2
10:19 67.4 °F 51.2 °F 30.07 in NW 16.1 mph 10.8 mph 56% 0 in 679.00 W/m2
10:24 67.7 °F 52.9 °F 30.07 in NNW 17 mph 10.1 mph 59% 0 in 724.00 W/m2
10:29 67.7 °F 51.4 °F 30.07 in NNW 19.6 mph 13.7 mph 56% 0 in 756.00 W/m2
10:34 67.9 °F 51.1 °F 30.07 in NW 19.6 mph 11.2 mph 55% 0 in 795.00 W/m2
10:39 68.2 °F 50.9 °F 30.07 in North 19.6 mph 13.8 mph 54% 0 in 809.00 W/m2
10:44 68.6 °F 51.8 °F 30.08 in NW 12.7 mph 10 mph 55% 0 in 821.00 W/m2
10:49 68.8 °F 52.9 °F 30.08 in NNW 15 mph 10.2 mph 57% 0 in 830.00 W/m2
10:54 68.8 °F 51 °F 30.08 in NNW 25.3 mph 9 mph 53% 0 in 837.00 W/m2
10:59 68.8 °F 51.5 °F 30.08 in North 13 mph 10.4 mph 54% 0 in 849.00 W/m2
11:04 69.4 °F 51.5 °F 30.08 in NW 15 mph 10.9 mph 53% 0 in 849.00 W/m2
11:09 69.4 °F 51 °F 30.08 in NNW 17.3 mph 9.9 mph 52% 0 in 858.00 W/m2
11:14 69.4 °F 49.9 °F 30.08 in WNW 12.7 mph 11.6 mph 50% 0 in 867.00 W/m2
11:19 69.5 °F 49.5 °F 30.08 in NW 15 mph 10.7 mph 49% 0 in 870.00 W/m2
11:24 69.8 °F 51.9 °F 30.08 in NNW 16 mph 9 mph 53% 0 in 877.00 W/m2
11:29 69.9 °F 50.9 °F 30.08 in NNW 13.8 mph 8.2 mph 51% 0 in 879.00 W/m2
11:34 70.4 °F 50.3 °F 30.08 in NW 21.9 mph 11.3 mph 49% 0 in 891.00 W/m2
11:39 70.6 °F 48.8 °F 30.08 in WNW 16 mph 11 mph 46% 0 in 895.00 W/m2
11:44 71 °F 49.2 °F 30.08 in WNW 16.1 mph 9.1 mph 46% 0 in 905.00 W/m2
11:49 70.8 °F 49 °F 30.08 in NW 15 mph 10.8 mph 46% 0 in 907.00 W/m2
11:55 71 °F 50.9 °F 30.08 in NNW 19.6 mph 12 mph 49% 0 in 911.00 W/m2
11:59 71.2 °F 48.8 °F 30.08 in West 19.6 mph 10.5 mph 45% 0 in 919.00 W/m2
12:04 71.2 °F 46.9 °F 30.08 in WNW 17.3 mph 11.3 mph 42% 0 in 926.00 W/m2
12:09 71.3 °F 48.9 °F 30.08 in NNW 15 mph 8.6 mph 45% 0 in 919.00 W/m2
12:14 71.6 °F 48.5 °F 30.08 in WNW 19.6 mph 10.3 mph 44% 0 in 923.00 W/m2
12:19 71.7 °F 48.6 °F 30.08 in NNW 16 mph 10.6 mph 44% 0 in 935.00 W/m2
12:24 72 °F 48.3 °F 30.09 in NW 11.5 mph 9.7 mph 43% 0 in 933.00 W/m2
12:29 72.1 °F 46.4 °F 30.09 in NNW 16.1 mph 13.3 mph 40% 0 in 942.00 W/m2
12:34 72 °F 47 °F 30.09 in NNW 12 mph 12 mph 41% 0 in 944.00 W/m2
12:39 72.2 °F 47.8 °F 30.09 in NW 13 mph 9.8 mph 42% 0 in 944.00 W/m2
12:44 72.5 °F 46.1 °F 30.09 in NNW 18.4 mph 10.5 mph 39% 0 in 946.00 W/m2
12:49 72.6 °F 46.9 °F 30.09 in NW 12.7 mph 8.5 mph 40% 0 in 944.00 W/m2
12:54 72.7 °F 45.6 °F 30.09 in North 19.6 mph 16.8 mph 38% 0 in 946.00 W/m2
12:59 72.5 °F 45.4 °F 30.09 in NNW 25.3 mph 12.9 mph 38% 0 in 940.00 W/m2
13:04 72.7 °F 45.6 °F 30.09 in NNW 20 mph 10.5 mph 38% 0 in 939.00 W/m2
13:09 72.6 °F 46.2 °F 30.09 in North 12 mph 10.2 mph 39% 0 in 940.00 W/m2
13:14 72.8 °F 45.7 °F 30.09 in NNW 18 mph 13 mph 38% 0 in 939.00 W/m2
13:19 72.7 °F 47 °F 30.09 in NW 16.1 mph 7.7 mph 40% 0 in 935.00 W/m2
13:24 73.3 °F 49.4 °F 30.09 in WNW 14 mph 7.4 mph 43% 0 in 932.00 W/m2
13:29 73.3 °F 44.7 °F 30.09 in NW 18.4 mph 11.6 mph 36% 0 in 935.00 W/m2
13:34 73.1 °F 47.3 °F 30.09 in NW 12 mph 8.7 mph 40% 0 in 923.00 W/m2
13:39 73.6 °F 47.1 °F 30.09 in WNW 16.1 mph 10.1 mph 39% 0 in 919.00 W/m2
13:44 73.8 °F 45.9 °F 30.09 in NW 13.8 mph 11.9 mph 37% 0 in 914.00 W/m2
13:49 73.7 °F 47.2 °F 30.09 in NNW 17 mph 16.7 mph 39% 0 in 911.00 W/m2
13:54 73.8 °F 45.9 °F 30.09 in NNW 18.4 mph 11.7 mph 37% 0 in 907.00 W/m2
13:59 73.6 °F 43.5 °F 30.09 in NW 18.4 mph 10.9 mph 34% 0 in 900.00 W/m2
14:04 73.5 °F 46.3 °F 30.09 in NNW 19.6 mph 15.7 mph 38% 0 in 895.00 W/m2
14:09 73.5 °F 47 °F 30.09 in North 19 mph 14.5 mph 39% 0 in 884.00 W/m2
14:14 73.6 °F 45 °F 30.09 in NNW 16.1 mph 10.9 mph 36% 0 in 872.00 W/m2
14:19 74.4 °F 44.2 °F 30.09 in NNW 19.6 mph 11.7 mph 34% 0 in 877.00 W/m2
14:24 74.1 °F 43.9 °F 30.09 in NW 18.4 mph 11.4 mph 34% 0 in 870.00 W/m2
14:29 74.2 °F 44.8 °F 30.09 in WNW 13 mph 9.8 mph 35% 0 in 861.00 W/m2
14:34 74.5 °F 45 °F 30.09 in NNW 16.1 mph 12.2 mph 35% 0 in 856.00 W/m2
14:39 74.7 °F 44.5 °F 30.09 in WNW 12 mph 9.6 mph 34% 0 in 844.00 W/m2
14:44 74.5 °F 45 °F 30.09 in North 14 mph 10.6 mph 35% 0 in 833.00 W/m2
14:49 74.4 °F 43.4 °F 30.09 in WNW 16.1 mph 8.6 mph 33% 0 in 831.00 W/m2
14:54 74.9 °F 43 °F 30.09 in NNW 17.3 mph 12.3 mph 32% 0 in 826.00 W/m2
14:59 74.6 °F 43.6 °F 30.09 in NNW 16.1 mph 10.4 mph 33% 0 in 816.00 W/m2
15:04 74.7 °F 45.2 °F 30.09 in NNW 16 mph 13.8 mph 35% 0 in 807.00 W/m2
15:09 74.7 °F 43.7 °F 30.09 in WNW 20.7 mph 11.4 mph 33% 0 in 796.00 W/m2
15:14 74.7 °F 44.5 °F 30.09 in NW 19.6 mph 8.7 mph 34% 0 in 782.00 W/m2
15:19 74.7 °F 46 °F 30.10 in NNW 17.3 mph 12.5 mph 36% 0 in 772.00 W/m2
15:24 75 °F 47 °F 30.10 in NNW 12.7 mph 10.1 mph 37% 0 in 763.00 W/m2
15:29 74.9 °F 44.6 °F 30.10 in North 19.6 mph 14.2 mph 34% 0 in 745.00 W/m2
15:34 74.8 °F 46.1 °F 30.10 in NNW 17 mph 13 mph 36% 0 in 738.00 W/m2
15:39 74.8 °F 45.3 °F 30.09 in NNW 12.7 mph 11.4 mph 35% 0 in 731.00 W/m2
15:44 74.8 °F 44.5 °F 30.09 in NNW 21.9 mph 15.2 mph 34% 0 in 715.00 W/m2
15:49 74.7 °F 46.7 °F 30.09 in NNW 13 mph 6.7 mph 37% 0 in 698.00 W/m2
15:54 75.1 °F 45.6 °F 30.10 in NNW 18.4 mph 14.7 mph 35% 0 in 689.00 W/m2
15:59 74.8 °F 46.1 °F 30.10 in NNW 15 mph 9.1 mph 36% 0 in 684.00 W/m2
16:04 74.9 °F 45.4 °F 30.10 in NNW 20.7 mph 12.3 mph 35% 0 in 664.00 W/m2
16:10 75.1 °F 45.6 °F 30.10 in NNW 18.4 mph 13.7 mph 35% 0 in 654.00 W/m2
16:14 74.8 °F 46.8 °F 30.10 in WNW 20.7 mph 8.9 mph 37% 0 in 642.00 W/m2
16:19 74.9 °F 46.1 °F 30.10 in WNW 11.5 mph 5.1 mph 36% 0 in 633.00 W/m2
16:24 75.1 °F 46.3 °F 30.09 in NNW 11.5 mph 5.3 mph 36% 0 in 615.00 W/m2
16:29 75.3 °F 45 °F 30.10 in North 19.6 mph 9.7 mph 34% 0 in 605.00 W/m2
16:34 75 °F 45.5 °F 30.10 in NNW 17.3 mph 9.6 mph 35% 0 in 589.00 W/m2
16:39 75 °F 46.2 °F 30.10 in NW 17.3 mph 12.8 mph 36% 0 in 573.00 W/m2
16:44 74.9 °F 45.4 °F 30.10 in WNW 14 mph 9.2 mph 35% 0 in 564.00 W/m2
16:49 74.9 °F 46.1 °F 30.09 in NNW 12 mph 10.6 mph 36% 0 in 547.00 W/m2
16:54 74.8 °F 46.1 °F 30.10 in NW 13.8 mph 8 mph 36% 0 in 534.00 W/m2
16:59 74.8 °F 45.3 °F 30.09 in NNW 9.2 mph 6.5 mph 35% 0 in 520.00 W/m2
17:04 75.3 °F 47.2 °F 30.10 in NNW 16 mph 9.3 mph 37% 0 in 506.00 W/m2
17:09 75 °F 47 °F 30.10 in NNW 15 mph 10.9 mph 37% 0 in 497.00 W/m2
17:14 74.9 °F 44.6 °F 30.10 in NW 17.3 mph 9.8 mph 34% 0 in 480.00 W/m2
17:19 74.7 °F 47.4 °F 30.10 in NNW 12.7 mph 7.8 mph 38% 0 in 468.00 W/m2
17:24 74.5 °F 47.2 °F 30.09 in North 12.7 mph 8.1 mph 38% 0 in 452.00 W/m2
17:29 74.6 °F 45.9 °F 30.10 in NNW 13.8 mph 9.2 mph 36% 0 in 436.00 W/m2
17:34 74.5 °F 46.5 °F 30.10 in NNW 16.1 mph 8.3 mph 37% 0 in 422.00 W/m2
17:39 74.6 °F 45.9 °F 30.10 in NW 13 mph 8.8 mph 36% 0 in 408.00 W/m2
17:44 74.6 °F 46.6 °F 30.09 in NW 9.2 mph 7.3 mph 37% 0 in 390.00 W/m2
17:49 74.5 °F 46.5 °F 30.09 in WNW 11.5 mph 7.4 mph 37% 0 in 376.00 W/m2
17:54 74.6 °F 46.6 °F 30.10 in NW 17 mph 8.3 mph 37% 0 in 367.00 W/m2
17:59 74.4 °F 45 °F 30.10 in NW 17.3 mph 12 mph 35% 0 in 348.00 W/m2
18:04 74.2 °F 45.5 °F 30.10 in NW 12 mph 11.1 mph 36% 0 in 332.00 W/m2
18:09 74.1 °F 45.4 °F 30.10 in NNW 17.3 mph 8.2 mph 36% 0 in 316.00 W/m2
18:14 74.1 °F 45.4 °F 30.10 in NW 12.7 mph 8.3 mph 36% 0 in 302.00 W/m2
18:19 74 °F 46.1 °F 30.10 in WNW 13 mph 9.4 mph 37% 0 in 288.00 W/m2
18:24 74 °F 46.8 °F 30.10 in NW 12.7 mph 6.4 mph 38% 0 in 271.00 W/m2
18:29 74 °F 46.8 °F 30.10 in NNW 11.5 mph 6.2 mph 38% 0 in 257.00 W/m2
18:34 74 °F 46.8 °F 30.10 in WNW 11.5 mph 4.5 mph 38% 0 in 243.00 W/m2
18:39 73.9 °F 46.7 °F 30.10 in NNW 12.7 mph 13.1 mph 38% 0 in 229.00 W/m2
18:44 73.5 °F 46.3 °F 30.10 in NW 16.1 mph 10.3 mph 38% 0 in 209.00 W/m2
18:49 73.3 °F 46.2 °F 30.10 in NNW 9.2 mph 8.8 mph 38% 0 in 192.00 W/m2
18:54 73.2 °F 46.8 °F 30.10 in NNW 9.2 mph 6.2 mph 39% 0 in 172.00 W/m2
18:59 73.3 °F 46.8 °F 30.10 in NW 11.5 mph 6.9 mph 39% 0 in 155.00 W/m2
19:04 73.2 °F 46.1 °F 30.10 in NNW 10.4 mph 8.6 mph 38% 0 in 141.00 W/m2
19:09 73 °F 46.6 °F 30.10 in NNW 10.4 mph 5.7 mph 39% 0 in 107.00 W/m2
19:14 72.8 °F 46.4 °F 30.11 in NNW 10.4 mph 5 mph 39% 0 in 107.00 W/m2
19:19 72.6 °F 46.9 °F 30.11 in NNW 11.5 mph 7.1 mph 40% 0 in 93.00 W/m2
19:24 72.3 °F 46.6 °F 30.11 in NNW 6.9 mph 3.9 mph 40% 0 in 74.00 W/m2
19:29 72 °F 46.3 °F 30.11 in NW 9.2 mph 5.8 mph 40% 0 in 30.00 W/m2
19:34 71.8 °F 46.8 °F 30.11 in NNW 8.1 mph 3.4 mph 41% 0 in 28.00 W/m2
19:39 71.6 °F 46 °F 30.11 in NNW 9.2 mph 5.7 mph 40% 0 in 25.00 W/m2
19:44 71.3 °F 46.4 °F 30.11 in NW 8.1 mph 5.3 mph 41% 0 in 23.00 W/m2
19:49 71.1 °F 46.2 °F 30.11 in NNW 10.4 mph 3.7 mph 41% 0 in 21.00 W/m2
19:54 70.9 °F 46.7 °F 30.11 in NNW 5 mph 4.1 mph 42% 0 in 19.00 W/m2
19:59 70.6 °F 47 °F 30.11 in NW 5.8 mph 4.3 mph 43% 0 in 16.00 W/m2
20:04 70.3 °F 47.3 °F 30.12 in NNW 5.8 mph 1.3 mph 44% 0 in 12.00 W/m2
20:09 69.9 °F 47 °F 30.12 in NNW 3.5 mph 2.5 mph 44% 0 in 11.00 W/m2
20:14 69.7 °F 46.8 °F 30.12 in NW 4.6 mph 2.6 mph 44% 0 in 9.00 W/m2
20:19 69.3 °F 47 °F 30.12 in NNW 3.5 mph 2.1 mph 45% 0 in 5.00 W/m2
20:25 69 °F 46.8 °F 30.12 in NW 3.5 mph 1.5 mph 45% 0 in 0.00 W/m2
20:29 68.7 °F 47.1 °F 30.12 in NNW 3.5 mph 1.2 mph 46% 0 in 0.00 W/m2
20:34 68.3 °F 47.3 °F 30.12 in NNW 2.3 mph 1.3 mph 47% 0 in 0.00 W/m2
20:39 67.9 °F 46.9 °F 30.12 in NNW 2.3 mph 0.4 mph 47% 0 in 0.00 W/m2
20:44 67.5 °F 47.1 °F 30.12 in Calm     48% 0 in 0.00 W/m2
20:49 67.2 °F 46.8 °F 30.12 in Calm     48% 0 in 0.00 W/m2
20:54 66.9 °F 47.1 °F 30.13 in Calm     49% 0 in 0.00 W/m2
20:59 66.5 °F 46.7 °F 30.13 in Calm     49% 0 in 0.00 W/m2
21:04 66 °F 46.8 °F 30.13 in Calm     50% 0 in 0.00 W/m2
21:09 65.6 °F 50 °F 30.13 in Calm     57% 0 in 0.00 W/m2
21:14 64.6 °F 48.5 °F 30.13 in Calm     56% 0 in 0.00 W/m2
21:19 63.8 °F 47.3 °F 30.13 in Calm     55% 0 in 0.00 W/m2
21:24 63.1 °F 47.6 °F 30.14 in Calm     57% 0 in 0.00 W/m2
21:29 62.5 °F 50.2 °F 30.14 in Calm     64% 0 in 0.00 W/m2
21:34 61.2 °F 49.3 °F 30.14 in Calm     65% 0 in 0.00 W/m2
21:39 60.4 °F 48.2 °F 30.14 in Calm     64% 0 in 0.00 W/m2
21:44 60 °F 48.2 °F 30.14 in Calm     65% 0 in 0.00 W/m2
21:49 59.6 °F 48.2 °F 30.14 in Calm     66% 0 in 0.00 W/m2
21:54 59.3 °F 48.3 °F 30.14 in Calm     67% 0 in 0.00 W/m2
21:59 59.1 °F 48.5 °F 30.14 in Calm     68% 0 in 0.00 W/m2
22:04 59.1 °F 48.9 °F 30.14 in Calm     69% 0 in 0.00 W/m2
22:09 59 °F 48.8 °F 30.14 in Calm     69% 0 in 0.00 W/m2
22:14 58.8 °F 48.6 °F 30.14 in Calm     69% 0 in 0.00 W/m2
22:19 58.6 °F 48.8 °F 30.14 in Calm     70% 0 in 0.00 W/m2
22:24 58.6 °F 48.8 °F 30.14 in Calm     70% 0 in 0.00 W/m2
22:29 58.7 °F 48.6 °F 30.15 in Calm     69% 0 in 0.00 W/m2
22:34 58.6 °F 48.5 °F 30.14 in Calm     69% 0 in 0.00 W/m2
22:39 58.7 °F 49.3 °F 30.15 in Calm     71% 0 in 0.00 W/m2
22:45 58.7 °F 49.3 °F 30.15 in Calm     71% 0 in 0.00 W/m2
22:49 58.6 °F 49.2 °F 30.15 in Calm     71% 0 in 0.00 W/m2
22:54 58.7 °F 49.3 °F 30.15 in Calm     71% 0 in 0.00 W/m2
22:59 59.3 °F 49.1 °F 30.15 in Calm     69% 0 in 0.00 W/m2
23:04 59.5 °F 49.3 °F 30.15 in Calm     69% 0 in 0.00 W/m2
23:09 59.2 °F 48.6 °F 30.15 in Calm     68% 0 in 0.00 W/m2
23:14 58.9 °F 48.7 °F 30.15 in Calm     69% 0 in 0.00 W/m2
23:19 58.6 °F 48.8 °F 30.15 in Calm     70% 0 in 0.00 W/m2
23:24 58.5 °F 48.7 °F 30.15 in Calm     70% 0 in 0.00 W/m2
23:29 58.3 °F 49.3 °F 30.15 in Calm     72% 0 in 0.00 W/m2
23:34 57.9 °F 48.9 °F 30.15 in Calm     72% 0 in 0.00 W/m2
23:39 57.4 °F 49.2 °F 30.15 in Calm     74% 0 in 0.00 W/m2
23:44 57.1 °F 48.9 °F 30.15 in Calm     74% 0 in 0.00 W/m2
23:49 57.1 °F 48.9 °F 30.15 in Calm     74% 0 in 0.00 W/m2
23:54 56.9 °F 48.7 °F 30.15 in Calm     74% 0 in 0.00 W/m2
23:59 56.9 °F 48.3 °F 30.15 in Calm     73% 0 in 0.00 W/m2
Bourbonnais, Illinois, USA
Compliments of Weather Underground - 4 mb